createdAt,value
2019-06-15T00:00:23.428Z,21.50
2019-06-15T00:02:52.509Z,21.60
2019-06-15T00:05:21.268Z,21.60
2019-06-15T00:07:50.023Z,21.60
2019-06-15T00:10:18.724Z,21.50
2019-06-15T00:12:47.527Z,21.50
2019-06-15T00:15:16.422Z,21.40
2019-06-15T00:17:45.113Z,21.40
2019-06-15T00:20:15.355Z,21.40
2019-06-15T00:22:44.162Z,21.40
2019-06-15T00:25:13.797Z,21.40
2019-06-15T00:27:42.512Z,21.30
2019-06-15T00:30:12.294Z,21.30
2019-06-15T00:32:41.032Z,21.20
2019-06-15T00:35:10.214Z,21.20
2019-06-15T00:37:39.002Z,21.20
2019-06-15T00:40:08.533Z,21.20
2019-06-15T00:42:37.223Z,21.20
2019-06-15T00:45:06.594Z,21.20
2019-06-15T00:47:35.306Z,21.20
2019-06-15T00:50:04.475Z,21.20
2019-06-15T00:52:33.188Z,21.10
2019-06-15T00:55:01.854Z,21.10
2019-06-15T00:57:30.568Z,21.10
2019-06-15T00:59:59.337Z,21.10
2019-06-15T01:02:28.110Z,21.10
2019-06-15T01:04:56.811Z,21.10
2019-06-15T01:07:25.658Z,21.10
2019-06-15T01:09:54.413Z,21.10
2019-06-15T01:12:23.184Z,21.10
2019-06-15T01:14:51.887Z,21.10
2019-06-15T01:17:20.614Z,21.00
2019-06-15T01:19:49.304Z,21.10
2019-06-15T01:22:18.061Z,21.10
2019-06-15T01:24:46.785Z,21.00
2019-06-15T01:27:15.484Z,21.00
2019-06-15T01:29:44.308Z,20.90
2019-06-15T01:32:12.988Z,20.90
2019-06-15T01:34:41.679Z,20.90
2019-06-15T01:37:10.391Z,20.90
2019-06-15T01:39:39.089Z,20.80
2019-06-15T01:42:07.765Z,20.80
2019-06-15T01:44:36.494Z,20.80
2019-06-15T01:47:05.302Z,20.80
2019-06-15T01:49:34.010Z,20.90
2019-06-15T01:52:02.752Z,20.80
2019-06-15T01:54:31.433Z,20.90
2019-06-15T01:57:00.154Z,20.90
2019-06-15T01:59:28.934Z,20.90
2019-06-15T02:01:57.615Z,20.80
2019-06-15T02:04:26.281Z,20.90
2019-06-15T02:06:54.995Z,20.90
2019-06-15T02:09:23.715Z,20.90
2019-06-15T02:11:52.426Z,20.90
2019-06-15T02:14:21.161Z,21.00
2019-06-15T02:16:49.856Z,21.00
2019-06-15T02:19:18.539Z,21.00
2019-06-15T02:21:47.261Z,21.00
2019-06-15T02:24:15.957Z,21.00
2019-06-15T02:26:44.662Z,21.00
2019-06-15T02:29:13.423Z,21.00
2019-06-15T02:31:42.201Z,21.00
2019-06-15T02:34:10.911Z,21.00
2019-06-15T02:36:39.622Z,21.00
2019-06-15T02:39:08.300Z,20.90
2019-06-15T02:41:37.232Z,20.80
2019-06-15T02:44:06.422Z,20.80
2019-06-15T02:46:35.210Z,20.80
2019-06-15T02:49:03.905Z,20.80
2019-06-15T02:51:33.124Z,20.70
2019-06-15T02:54:01.806Z,20.60
2019-06-15T02:56:30.485Z,20.60
2019-06-15T02:58:59.276Z,20.50
2019-06-15T03:01:28.039Z,20.50
2019-06-15T03:03:56.746Z,20.40
2019-06-15T03:06:25.947Z,20.30
2019-06-15T03:08:54.722Z,20.20
2019-06-15T03:11:23.418Z,20.20
2019-06-15T03:13:52.884Z,20.10
2019-06-15T03:16:21.662Z,20.00
2019-06-15T03:18:50.360Z,19.90
2019-06-15T03:21:19.111Z,19.90
2019-06-15T03:23:47.815Z,19.80
2019-06-15T03:26:16.523Z,19.80
2019-06-15T03:28:45.281Z,19.70
2019-06-15T03:31:13.975Z,19.70
2019-06-15T03:33:42.654Z,19.90
2019-06-15T03:36:11.391Z,19.80
2019-06-15T03:38:40.077Z,19.80
2019-06-15T03:41:08.775Z,20.00
2019-06-15T03:43:37.494Z,20.20
2019-06-15T03:46:06.165Z,20.30
2019-06-15T03:48:34.849Z,20.30
2019-06-15T03:51:03.653Z,20.30
2019-06-15T03:53:32.353Z,20.30
2019-06-15T03:56:01.037Z,20.30
2019-06-15T03:58:29.754Z,20.30
2019-06-15T04:01:09.012Z,20.20
2019-06-15T04:03:37.792Z,20.20
2019-06-15T04:06:06.501Z,20.20
2019-06-15T04:08:36.273Z,20.20
2019-06-15T04:11:05.111Z,20.20
2019-06-15T04:13:33.888Z,20.30
2019-06-15T04:16:02.597Z,20.30
2019-06-15T04:18:31.467Z,20.30
2019-06-15T04:21:00.154Z,20.30
2019-06-15T04:23:28.843Z,20.30
2019-06-15T04:25:57.549Z,20.30
2019-06-15T04:28:26.225Z,20.40
2019-06-15T04:30:54.931Z,20.40
2019-06-15T04:33:23.749Z,20.40
2019-06-15T04:35:52.425Z,20.40
2019-06-15T04:38:21.131Z,20.40
2019-06-15T04:40:50.787Z,20.40
2019-06-15T04:43:19.505Z,20.50
2019-06-15T04:45:48.203Z,20.50
2019-06-15T04:48:17.029Z,20.60
2019-06-15T04:50:45.750Z,20.70
2019-06-15T04:53:14.961Z,20.90
2019-06-15T04:55:44.110Z,20.90
2019-06-15T04:58:12.813Z,21.00
2019-06-15T05:00:41.541Z,21.10
2019-06-15T05:03:10.399Z,21.20
2019-06-15T05:05:39.155Z,21.30
2019-06-15T05:08:07.860Z,21.30
2019-06-15T05:10:36.579Z,21.30
2019-06-15T05:13:05.273Z,21.50
2019-06-15T05:15:33.989Z,21.50
2019-06-15T05:18:02.735Z,21.60
2019-06-15T05:20:31.444Z,21.60
2019-06-15T05:23:00.191Z,21.70
2019-06-15T05:25:29.000Z,21.70
2019-06-15T05:27:57.670Z,21.80
2019-06-15T05:30:26.433Z,22.00
2019-06-15T05:32:55.271Z,22.10
2019-06-15T05:35:23.951Z,22.20
2019-06-15T05:37:52.670Z,22.30
2019-06-15T05:40:21.779Z,22.40
2019-06-15T05:42:51.910Z,22.60
2019-06-15T05:45:20.680Z,22.60
2019-06-15T05:47:49.493Z,22.80
2019-06-15T05:50:18.455Z,22.70
2019-06-15T05:52:47.132Z,22.70
2019-06-15T05:55:16.277Z,22.80
2019-06-15T05:57:44.965Z,23.00
2019-06-15T06:00:14.473Z,23.00
2019-06-15T06:02:43.174Z,22.90
2019-06-15T06:05:13.589Z,23.00
2019-06-15T06:07:42.301Z,23.10
2019-06-15T06:10:11.659Z,23.20
2019-06-15T06:12:40.337Z,23.30
2019-06-15T06:15:09.091Z,23.40
2019-06-15T06:17:37.830Z,23.60
2019-06-15T06:20:06.664Z,23.60
2019-06-15T06:22:35.336Z,23.60
2019-06-15T06:25:04.552Z,23.60
2019-06-15T06:27:36.624Z,23.60
2019-06-15T06:30:05.006Z,23.80
2019-06-15T06:32:33.790Z,23.90
2019-06-15T06:35:02.603Z,23.90
2019-06-15T06:37:31.328Z,23.90
2019-06-15T06:40:00.056Z,24.00
2019-06-15T06:42:28.745Z,24.10
2019-06-15T06:44:57.486Z,24.20
2019-06-15T06:47:26.330Z,24.30
2019-06-15T06:49:55.021Z,24.40
2019-06-15T06:52:23.780Z,24.50
2019-06-15T06:54:52.569Z,24.50
2019-06-15T06:57:21.406Z,24.50
2019-06-15T06:59:50.125Z,24.40
2019-06-15T07:02:19.025Z,24.50
2019-06-15T07:04:47.806Z,24.70
2019-06-15T07:07:16.488Z,24.90
2019-06-15T07:09:45.268Z,24.90
2019-06-15T07:12:14.048Z,25.10
2019-06-15T07:14:42.815Z,25.20
2019-06-15T07:17:11.865Z,25.30
2019-06-15T07:19:40.579Z,25.60
2019-06-15T07:22:09.790Z,25.40
2019-06-15T07:24:38.665Z,25.30
2019-06-15T07:27:07.377Z,25.20
2019-06-15T07:29:36.156Z,25.30
2019-06-15T07:32:04.913Z,25.40
2019-06-15T07:34:33.632Z,25.60
2019-06-15T07:37:02.368Z,25.60
2019-06-15T07:39:31.132Z,25.60
2019-06-15T07:41:59.883Z,25.70
2019-06-15T07:44:28.595Z,25.80
2019-06-15T07:46:57.345Z,25.80
2019-06-15T07:49:26.065Z,25.80
2019-06-15T07:51:54.749Z,25.80
2019-06-15T07:54:23.509Z,25.90
2019-06-15T07:56:52.246Z,26.20
2019-06-15T07:59:20.934Z,26.30
2019-06-15T08:01:49.685Z,26.30
2019-06-15T08:04:18.378Z,26.30
2019-06-15T08:06:47.078Z,26.60
2019-06-15T08:09:15.814Z,26.90
2019-06-15T08:11:45.923Z,27.00
2019-06-15T08:14:14.793Z,27.10
2019-06-15T08:16:43.548Z,27.50
2019-06-15T08:19:13.120Z,28.10
2019-06-15T08:21:41.875Z,28.30
2019-06-15T08:24:11.449Z,28.20
2019-06-15T08:26:40.984Z,28.60
2019-06-15T08:29:09.682Z,28.60
2019-06-15T08:31:38.425Z,29.10
2019-06-15T08:34:07.154Z,29.00
2019-06-15T08:36:36.081Z,29.10
2019-06-15T08:39:06.356Z,29.20
2019-06-15T08:41:35.190Z,28.70
2019-06-15T08:44:04.586Z,28.90
2019-06-15T08:46:33.301Z,29.20
2019-06-15T08:49:02.135Z,29.50
2019-06-15T08:51:30.909Z,29.90
2019-06-15T08:53:59.663Z,30.20
2019-06-15T08:56:28.427Z,30.00
2019-06-15T08:58:57.210Z,30.00
2019-06-15T09:01:25.957Z,29.80
2019-06-15T09:03:54.627Z,30.10
2019-06-15T09:06:23.481Z,30.10
2019-06-15T09:08:52.247Z,30.30
2019-06-15T09:11:21.018Z,30.30
2019-06-15T09:13:49.797Z,30.70
2019-06-15T09:16:18.628Z,30.90
2019-06-15T09:18:47.411Z,31.10
2019-06-15T09:21:16.173Z,31.30
2019-06-15T09:23:44.921Z,31.00
2019-06-15T09:26:13.605Z,31.20
2019-06-15T09:28:42.301Z,31.40
2019-06-15T09:31:11.030Z,31.50
2019-06-15T09:33:39.741Z,31.40
2019-06-15T09:36:08.488Z,31.40
2019-06-15T09:38:37.249Z,31.60
2019-06-15T09:41:05.996Z,31.50
2019-06-15T09:43:34.753Z,32.30
2019-06-15T09:46:03.563Z,32.40
2019-06-15T09:48:32.247Z,32.30
2019-06-15T09:51:00.997Z,32.20
2019-06-15T09:53:29.838Z,32.30
2019-06-15T09:55:58.539Z,32.80
2019-06-15T09:58:27.213Z,32.80
2019-06-15T10:00:55.944Z,32.60
2019-06-15T10:03:24.657Z,32.60
2019-06-15T10:05:53.437Z,32.70
2019-06-15T10:08:22.125Z,32.20
2019-06-15T10:10:50.809Z,31.70
2019-06-15T10:13:19.522Z,31.60
2019-06-15T10:15:48.325Z,31.90
2019-06-15T10:18:17.012Z,31.90
2019-06-15T10:20:45.686Z,32.60
2019-06-15T10:23:14.413Z,33.40
2019-06-15T10:25:43.086Z,33.80
2019-06-15T10:28:11.788Z,33.60
2019-06-15T10:30:40.539Z,34.00
2019-06-15T10:33:09.224Z,34.00
2019-06-15T10:35:37.902Z,34.00
2019-06-15T10:38:06.680Z,34.20
2019-06-15T10:40:35.393Z,34.40
2019-06-15T10:43:04.234Z,34.80
2019-06-15T10:45:32.994Z,34.50
2019-06-15T10:48:01.752Z,34.20
2019-06-15T10:50:30.533Z,33.80
2019-06-15T10:52:59.321Z,33.30
2019-06-15T10:55:27.986Z,34.00
2019-06-15T10:57:56.677Z,33.90
2019-06-15T11:00:25.697Z,33.70
2019-06-15T11:02:54.395Z,33.60
2019-06-15T11:05:23.923Z,33.50
2019-06-15T11:07:52.659Z,33.40
2019-06-15T11:10:47.428Z,33.40
2019-06-15T11:13:16.232Z,33.60
2019-06-15T11:15:45.275Z,33.50
2019-06-15T11:18:13.961Z,33.20
2019-06-15T11:20:42.688Z,33.20
2019-06-15T11:23:12.345Z,33.40
2019-06-15T11:25:41.175Z,33.40
2019-06-15T11:28:09.898Z,33.60
2019-06-15T11:30:38.593Z,33.60
2019-06-15T11:33:07.282Z,33.20
2019-06-15T11:35:36.001Z,33.30
2019-06-15T11:38:04.753Z,33.30
2019-06-15T11:40:33.445Z,33.20
2019-06-15T11:43:02.209Z,33.30
2019-06-15T11:45:30.931Z,33.50
2019-06-15T11:47:59.989Z,33.40
2019-06-15T11:50:28.755Z,33.10
2019-06-15T11:52:57.493Z,33.40
2019-06-15T11:55:38.623Z,33.60
2019-06-15T11:57:56.624Z,33.70
2019-06-15T12:00:31.560Z,33.70
2019-06-15T12:02:58.805Z,33.60
2019-06-15T12:05:27.628Z,34.30
2019-06-15T12:07:56.356Z,34.50
2019-06-15T12:10:25.128Z,34.30
2019-06-15T12:12:53.840Z,34.10
2019-06-15T12:15:22.560Z,34.40
2019-06-15T12:17:51.329Z,34.70
2019-06-15T12:20:20.233Z,35.10
2019-06-15T12:22:49.182Z,35.10
2019-06-15T12:25:17.932Z,35.40
2019-06-15T12:27:46.660Z,35.50
2019-06-15T12:30:18.545Z,35.60
2019-06-15T12:32:47.263Z,35.90
2019-06-15T12:35:16.057Z,36.00
2019-06-15T12:37:44.874Z,35.60
2019-06-15T12:40:13.635Z,35.80
2019-06-15T12:42:42.368Z,36.00
2019-06-15T12:45:11.054Z,35.90
2019-06-15T12:47:39.749Z,35.60
2019-06-15T12:50:08.831Z,35.80
2019-06-15T12:52:37.538Z,35.80
2019-06-15T12:55:06.276Z,35.30
2019-06-15T12:57:35.037Z,35.10
2019-06-15T13:00:04.279Z,34.80
2019-06-15T13:02:32.926Z,34.50
2019-06-15T13:05:01.662Z,34.60
2019-06-15T13:07:30.341Z,34.60
2019-06-15T13:09:59.011Z,34.70
2019-06-15T13:12:27.718Z,35.30
2019-06-15T13:14:56.381Z,35.80
2019-06-15T13:17:25.129Z,36.30
2019-06-15T13:19:53.835Z,36.80
2019-06-15T13:22:22.541Z,36.20
2019-06-15T13:24:51.378Z,35.60
2019-06-15T13:27:20.102Z,35.40
2019-06-15T13:29:48.783Z,35.70
2019-06-15T13:32:17.457Z,35.50
2019-06-15T13:34:46.186Z,35.50
2019-06-15T13:37:14.870Z,34.70
2019-06-15T13:39:43.631Z,34.30
2019-06-15T13:42:12.379Z,34.30
2019-06-15T13:44:41.103Z,34.70
2019-06-15T13:47:09.840Z,35.50
2019-06-15T13:49:39.562Z,35.70
2019-06-15T13:52:08.287Z,35.80
2019-06-15T13:54:36.968Z,35.40
2019-06-15T13:57:05.677Z,35.40
2019-06-15T13:59:34.349Z,35.80
2019-06-15T14:02:03.038Z,36.20
2019-06-15T14:04:31.775Z,35.60
2019-06-15T14:07:00.509Z,35.00
2019-06-15T14:09:29.205Z,34.70
2019-06-15T14:11:58.151Z,34.90
2019-06-15T14:14:26.926Z,35.10
2019-06-15T14:16:55.693Z,35.30
2019-06-15T14:19:24.427Z,35.50
2019-06-15T14:21:53.111Z,35.00
2019-06-15T14:24:21.769Z,35.00
2019-06-15T14:26:50.487Z,34.80
2019-06-15T14:29:19.191Z,35.10
2019-06-15T14:31:50.572Z,34.40
2019-06-15T14:34:18.365Z,34.20
2019-06-15T14:36:47.062Z,34.70
2019-06-15T14:39:15.762Z,34.40
2019-06-15T14:41:46.901Z,34.00
2019-06-15T14:44:15.077Z,34.10
2019-06-15T14:46:43.770Z,33.90
2019-06-15T14:49:12.521Z,34.00
2019-06-15T14:51:41.271Z,34.50
2019-06-15T14:54:09.998Z,35.10
2019-06-15T14:56:38.762Z,34.80
2019-06-15T14:59:07.446Z,35.30
2019-06-15T15:01:36.141Z,35.20
2019-06-15T15:04:06.281Z,35.00
2019-06-15T15:06:36.866Z,34.90
2019-06-15T15:09:07.240Z,34.70
2019-06-15T15:11:36.724Z,34.30
2019-06-15T15:14:06.683Z,34.00
2019-06-15T15:16:35.856Z,34.00
2019-06-15T15:19:06.112Z,33.60
2019-06-15T15:21:37.172Z,33.90
2019-06-15T15:24:06.265Z,33.50
2019-06-15T15:26:37.055Z,33.20
2019-06-15T15:29:06.981Z,32.80
2019-06-15T15:31:36.321Z,32.50
2019-06-15T15:34:07.692Z,32.50
2019-06-15T15:36:36.875Z,32.40
2019-06-15T15:39:10.106Z,32.40
2019-06-15T15:41:37.027Z,32.10
2019-06-15T15:44:05.686Z,32.00
2019-06-15T15:46:34.416Z,31.70
2019-06-15T15:49:03.269Z,31.20
2019-06-15T15:51:31.997Z,30.80
2019-06-15T15:54:00.833Z,30.80
2019-06-15T15:56:29.621Z,31.00
2019-06-15T15:58:58.623Z,30.60
2019-06-15T16:01:27.422Z,30.70
2019-06-15T16:03:56.343Z,31.10
2019-06-15T16:06:26.062Z,30.80
2019-06-15T16:08:56.887Z,30.30
2019-06-15T16:11:26.643Z,29.90
2019-06-15T16:13:56.479Z,30.20
2019-06-15T16:16:26.667Z,30.30
2019-06-15T16:18:56.205Z,30.30
2019-06-15T16:21:26.073Z,29.80
2019-06-15T16:23:58.081Z,29.60
2019-06-15T16:26:27.153Z,29.20
2019-06-15T16:28:56.358Z,28.60
2019-06-15T16:31:28.901Z,28.80
2019-06-15T16:33:55.686Z,28.50
2019-06-15T16:36:24.370Z,28.50
2019-06-15T16:38:53.093Z,28.20
2019-06-15T16:41:21.828Z,28.20
2019-06-15T16:43:50.510Z,28.00
2019-06-15T16:46:19.289Z,27.90
2019-06-15T16:48:47.972Z,28.00
2019-06-15T16:51:16.902Z,27.90
2019-06-15T16:53:47.383Z,27.70
2019-06-15T16:56:16.822Z,27.50
2019-06-15T16:58:46.875Z,27.40
2019-06-15T17:01:16.825Z,27.20
2019-06-15T17:03:46.957Z,27.20
2019-06-15T17:06:16.191Z,27.20
2019-06-15T17:08:46.485Z,27.20
2019-06-15T17:11:17.277Z,27.20
2019-06-15T17:13:47.484Z,27.10
2019-06-15T17:16:16.874Z,26.80
2019-06-15T17:18:47.058Z,26.50
2019-06-15T17:21:17.031Z,26.40
2019-06-15T17:23:46.691Z,26.50
2019-06-15T17:26:16.810Z,26.50
2019-06-15T17:28:46.060Z,26.60
2019-06-15T17:31:16.591Z,26.60
2019-06-15T17:33:46.880Z,26.40
2019-06-15T17:36:16.285Z,26.30
2019-06-15T17:38:46.295Z,26.30
2019-06-15T17:41:17.336Z,26.10
2019-06-15T17:43:47.414Z,26.10
2019-06-15T17:46:16.603Z,26.10
2019-06-15T17:48:46.693Z,26.00
2019-06-15T17:51:16.200Z,25.80
2019-06-15T17:53:47.489Z,25.70
2019-06-15T17:56:16.931Z,25.60
2019-06-15T17:58:46.340Z,25.60
2019-06-15T18:01:17.217Z,25.50
2019-06-15T18:03:53.828Z,25.60
2019-06-15T18:06:17.497Z,25.50
2019-06-15T18:08:46.582Z,25.40
2019-06-15T18:11:16.556Z,25.30
2019-06-15T18:13:47.241Z,25.10
2019-06-15T18:16:16.249Z,25.00
2019-06-15T18:18:44.951Z,25.00
2019-06-15T18:21:15.800Z,24.80
2019-06-15T18:23:46.454Z,24.80
2019-06-15T18:26:16.163Z,24.60
2019-06-15T18:28:46.908Z,24.60
2019-06-15T18:31:16.333Z,24.50
2019-06-15T18:33:47.379Z,24.60
2019-06-15T18:38:57.722Z,24.40
2019-06-15T18:41:26.677Z,24.30
2019-06-15T18:43:56.490Z,24.20
2019-06-15T18:46:27.327Z,24.20
2019-06-15T18:48:55.841Z,24.10
2019-06-15T18:51:26.892Z,24.10
2019-06-15T18:53:56.184Z,24.00
2019-06-15T18:56:27.142Z,24.00
2019-06-15T18:58:56.277Z,24.00
2019-06-15T19:01:27.044Z,23.90
2019-06-15T19:03:56.375Z,23.80
2019-06-15T19:06:26.457Z,23.80
2019-06-15T19:08:57.495Z,23.70
2019-06-15T19:11:27.357Z,23.60
2019-06-15T19:13:56.444Z,23.60
2019-06-15T19:16:25.308Z,23.60
2019-06-15T19:18:56.542Z,23.60
2019-06-15T19:21:26.062Z,23.50
2019-06-15T19:23:56.481Z,23.40
2019-06-15T19:26:26.895Z,23.30
2019-06-15T19:28:56.019Z,23.30
2019-06-15T19:31:27.629Z,23.30
2019-06-15T19:33:56.807Z,23.20
2019-06-15T19:36:25.824Z,23.20
2019-06-15T19:38:57.003Z,23.10
2019-06-15T19:41:26.625Z,23.00
2019-06-15T19:43:57.069Z,23.00
2019-06-15T19:46:27.827Z,22.90
2019-06-15T19:48:56.578Z,22.80
2019-06-15T19:51:26.466Z,22.80
2019-06-15T19:53:56.574Z,22.70
2019-06-15T19:56:26.034Z,22.70
2019-06-15T19:58:56.551Z,22.70
2019-06-15T20:01:26.244Z,22.60
2019-06-15T20:03:57.337Z,22.60
2019-06-15T20:06:26.022Z,22.50
2019-06-15T20:08:56.293Z,22.40
2019-06-15T20:11:25.454Z,22.40
2019-06-15T20:13:56.158Z,22.30
2019-06-15T20:16:24.574Z,22.30
2019-06-15T20:18:56.107Z,22.20
2019-06-15T20:21:24.174Z,22.20
2019-06-15T20:23:52.946Z,22.20
2019-06-15T20:26:21.631Z,22.10
2019-06-15T20:28:50.345Z,22.10
2019-06-15T20:31:19.075Z,22.00
2019-06-15T20:33:47.760Z,22.00
2019-06-15T20:36:16.545Z,21.90
2019-06-15T20:38:46.874Z,21.90
2019-06-15T20:41:16.354Z,21.80
2019-06-15T20:43:46.025Z,21.70
2019-06-15T20:46:17.087Z,21.70
2019-06-15T20:48:47.023Z,21.60
2019-06-15T20:51:17.331Z,21.60
2019-06-15T20:53:46.291Z,21.50
2019-06-15T20:56:16.927Z,21.50
2019-06-15T20:58:45.388Z,21.50
2019-06-15T21:01:16.341Z,21.40
2019-06-15T21:03:46.845Z,21.30
2019-06-15T21:06:16.916Z,21.30
2019-06-15T21:08:46.991Z,21.20
2019-06-15T21:11:17.043Z,21.20
2019-06-15T21:13:46.833Z,21.20
2019-06-15T21:16:15.847Z,21.10
2019-06-15T21:18:46.666Z,21.00
2019-06-15T21:21:16.002Z,21.00
2019-06-15T21:23:46.298Z,21.00
2019-06-15T21:26:16.439Z,20.90
2019-06-15T21:28:45.501Z,20.90
2019-06-15T21:31:16.562Z,20.90
2019-06-15T21:33:46.760Z,20.80
2019-06-15T21:36:15.110Z,20.80
2019-06-15T21:38:46.637Z,20.70
2019-06-15T21:41:16.552Z,20.60
2019-06-15T21:43:47.101Z,20.60
2019-06-15T21:46:16.834Z,20.50
2019-06-15T21:48:46.895Z,20.40
2019-06-15T21:51:16.565Z,20.40
2019-06-15T21:53:46.957Z,20.30
2019-06-15T21:56:16.174Z,20.20
2019-06-15T21:58:44.929Z,20.20
2019-06-15T22:01:26.066Z,20.10
2019-06-15T22:03:54.369Z,20.10
2019-06-15T22:06:23.048Z,20.00
2019-06-15T22:08:51.830Z,20.00
2019-06-15T22:11:20.544Z,19.90
2019-06-15T22:13:49.236Z,19.90
2019-06-15T22:16:17.993Z,19.90
2019-06-15T22:18:47.450Z,19.80
2019-06-15T22:21:16.812Z,19.70
2019-06-15T22:23:47.296Z,19.70
2019-06-15T22:26:17.389Z,19.60
2019-06-15T22:28:47.038Z,19.60
2019-06-15T22:31:17.150Z,19.50
2019-06-15T22:33:47.312Z,19.50
2019-06-15T22:36:24.792Z,19.40
2019-06-15T22:38:47.004Z,19.40
2019-06-15T22:41:16.763Z,19.40
2019-06-15T22:43:46.361Z,19.30
2019-06-15T22:46:16.592Z,19.20
2019-06-15T22:48:46.999Z,19.20
2019-06-15T22:51:16.823Z,19.10
2019-06-15T22:53:47.169Z,19.10
2019-06-15T22:56:17.054Z,19.10
2019-06-15T22:58:46.343Z,19.00
2019-06-15T23:01:16.942Z,19.00
2019-06-15T23:03:46.584Z,18.90
2019-06-15T23:06:16.261Z,18.90
2019-06-15T23:08:46.970Z,18.80
2019-06-15T23:11:17.391Z,18.80
2019-06-15T23:13:46.428Z,18.70
2019-06-15T23:16:15.290Z,18.60
2019-06-15T23:18:46.569Z,18.60
2019-06-15T23:21:17.073Z,18.60
2019-06-15T23:23:47.047Z,18.50
2019-06-15T23:26:16.585Z,18.40
2019-06-15T23:28:46.794Z,18.40
2019-06-15T23:31:16.686Z,18.30
2019-06-15T23:33:46.776Z,18.30
2019-06-15T23:36:21.393Z,18.30
2019-06-15T23:38:50.067Z,18.20
2019-06-15T23:41:18.772Z,18.10
2019-06-15T23:43:47.587Z,18.10
2019-06-15T23:46:16.556Z,18.10
2019-06-15T23:48:47.008Z,18.00
2019-06-15T23:51:17.015Z,18.00
2019-06-15T23:53:46.349Z,17.90
2019-06-15T23:56:15.185Z,17.90
2019-06-15T23:58:46.196Z,17.80
